Aartselaar, Belgium
Current Conditions -  °F | °C
As of 9:20 AM on Thursday 29 Jan 2015 (Local Time) from EBAW Reporting Station
Few Clouds Few Clouds  
Wind Chill: 27°   Ceiling: Unl
Heat Index: 36°   Visibility: 6mi
Dew Point: 30°   Wind: 13mph
Humidity: 81%   Direction: 220°SW
Pressure: 29.23"   Gusts: NA
Location:  51.13°N, 4.39°E
Report Text: EBAW 290820Z 22011KT 9999 FEW012 02/M01 Q0990 NOSIG
Loading
Personal Weather Stations






























Interactive Weather Map New forecast layout! Learn more

10-Day Weather Forecast

Advertisements
Track Severe Weather on mobile